sensor_id;sensor_type;location;lat;lon;timestamp;P1;durP1;ratioP1;P2;durP2;ratioP2
61200;SDS011;47065;52.898;6.992;2023-02-28T00:00:32;6.93;;;3.92;;
61200;SDS011;47065;52.898;6.992;2023-02-28T00:02:58;6.30;;;3.50;;
61200;SDS011;47065;52.898;6.992;2023-02-28T00:05:24;9.82;;;4.65;;
61200;SDS011;47065;52.898;6.992;2023-02-28T00:07:51;6.63;;;3.70;;
61200;SDS011;47065;52.898;6.992;2023-02-28T00:10:21;14.80;;;5.38;;
61200;SDS011;47065;52.898;6.992;2023-02-28T00:12:49;11.40;;;4.82;;
61200;SDS011;47065;52.898;6.992;2023-02-28T00:15:16;4.57;;;3.33;;
61200;SDS011;47065;52.898;6.992;2023-02-28T00:17:42;6.78;;;3.72;;
61200;SDS011;47065;52.898;6.992;2023-02-28T00:20:08;6.85;;;3.45;;
61200;SDS011;47065;52.898;6.992;2023-02-28T00:22:35;7.80;;;3.95;;
61200;SDS011;47065;52.898;6.992;2023-02-28T00:25:02;8.10;;;4.32;;
61200;SDS011;47065;52.898;6.992;2023-02-28T00:27:29;9.65;;;3.35;;
61200;SDS011;47065;52.898;6.992;2023-02-28T00:29:55;5.88;;;3.70;;
61200;SDS011;47065;52.898;6.992;2023-02-28T00:32:21;5.07;;;3.38;;
61200;SDS011;47065;52.898;6.992;2023-02-28T00:34:47;6.53;;;3.45;;
61200;SDS011;47065;52.898;6.992;2023-02-28T00:37:12;7.53;;;3.72;;
61200;SDS011;47065;52.898;6.992;2023-02-28T00:39:38;7.95;;;3.72;;
61200;SDS011;47065;52.898;6.992;2023-02-28T00:42:05;8.68;;;3.60;;
61200;SDS011;47065;52.898;6.992;2023-02-28T00:44:31;8.52;;;3.28;;
61200;SDS011;47065;52.898;6.992;2023-02-28T00:46:58;8.77;;;3.83;;
61200;SDS011;47065;52.898;6.992;2023-02-28T00:49:25;6.05;;;3.67;;
61200;SDS011;47065;52.898;6.992;2023-02-28T00:51:51;6.72;;;3.83;;
61200;SDS011;47065;52.898;6.992;2023-02-28T00:54:18;7.40;;;4.22;;
61200;SDS011;47065;52.898;6.992;2023-02-28T00:56:45;11.65;;;5.18;;
61200;SDS011;47065;52.898;6.992;2023-02-28T00:59:13;11.32;;;5.65;;
61200;SDS011;47065;52.898;6.992;2023-02-28T01:01:40;8.80;;;4.72;;
61200;SDS011;47065;52.898;6.992;2023-02-28T01:04:07;6.13;;;4.05;;
61200;SDS011;47065;52.898;6.992;2023-02-28T01:06:33;9.82;;;4.63;;
61200;SDS011;47065;52.898;6.992;2023-02-28T01:08:59;13.13;;;5.15;;
61200;SDS011;47065;52.898;6.992;2023-02-28T01:11:25;7.85;;;4.38;;
61200;SDS011;47065;52.898;6.992;2023-02-28T01:13:51;9.68;;;4.60;;
61200;SDS011;47065;52.898;6.992;2023-02-28T01:16:16;10.23;;;4.47;;
61200;SDS011;47065;52.898;6.992;2023-02-28T01:18:43;9.23;;;4.70;;
61200;SDS011;47065;52.898;6.992;2023-02-28T01:21:13;9.02;;;4.75;;
61200;SDS011;47065;52.898;6.992;2023-02-28T01:23:40;12.93;;;5.88;;
61200;SDS011;47065;52.898;6.992;2023-02-28T01:26:14;11.70;;;4.13;;
61200;SDS011;47065;52.898;6.992;2023-02-28T01:28:41;10.40;;;5.55;;
61200;SDS011;47065;52.898;6.992;2023-02-28T01:31:08;14.25;;;5.10;;
61200;SDS011;47065;52.898;6.992;2023-02-28T01:33:34;13.15;;;5.18;;
61200;SDS011;47065;52.898;6.992;2023-02-28T01:36:01;15.48;;;5.13;;
61200;SDS011;47065;52.898;6.992;2023-02-28T01:38:29;19.83;;;5.75;;
61200;SDS011;47065;52.898;6.992;2023-02-28T01:40:55;12.88;;;5.40;;
61200;SDS011;47065;52.898;6.992;2023-02-28T01:43:25;11.80;;;6.15;;
61200;SDS011;47065;52.898;6.992;2023-02-28T01:45:55;10.43;;;5.72;;
61200;SDS011;47065;52.898;6.992;2023-02-28T01:48:27;12.05;;;5.20;;
61200;SDS011;47065;52.898;6.992;2023-02-28T01:50:58;15.82;;;5.90;;
61200;SDS011;47065;52.898;6.992;2023-02-28T01:53:32;15.95;;;5.57;;
61200;SDS011;47065;52.898;6.992;2023-02-28T01:56:03;12.90;;;5.30;;
61200;SDS011;47065;52.898;6.992;2023-02-28T01:58:32;9.95;;;5.05;;
61200;SDS011;47065;52.898;6.992;2023-02-28T02:00:59;10.40;;;5.28;;
61200;SDS011;47065;52.898;6.992;2023-02-28T02:03:25;13.60;;;4.90;;
61200;SDS011;47065;52.898;6.992;2023-02-28T02:05:50;8.73;;;4.72;;
61200;SDS011;47065;52.898;6.992;2023-02-28T02:08:20;13.90;;;4.85;;
61200;SDS011;47065;52.898;6.992;2023-02-28T02:10:54;9.98;;;4.60;;
61200;SDS011;47065;52.898;6.992;2023-02-28T02:13:48;13.45;;;5.78;;
61200;SDS011;47065;52.898;6.992;2023-02-28T02:19:01;12.10;;;5.25;;
61200;SDS011;47065;52.898;6.992;2023-02-28T02:21:38;9.85;;;5.75;;
61200;SDS011;47065;52.898;6.992;2023-02-28T02:27:18;16.27;;;6.93;;
61200;SDS011;47065;52.898;6.992;2023-02-28T02:33:02;14.70;;;5.55;;
61200;SDS011;47065;52.898;6.992;2023-02-28T02:43:40;17.67;;;7.25;;
61200;SDS011;47065;52.898;6.992;2023-02-28T02:46:14;14.73;;;7.70;;
61200;SDS011;47065;52.898;6.992;2023-02-28T02:48:44;12.73;;;7.53;;
61200;SDS011;47065;52.898;6.992;2023-02-28T02:51:15;14.20;;;8.40;;
61200;SDS011;47065;52.898;6.992;2023-02-28T02:54:30;14.73;;;8.27;;
61200;SDS011;47065;52.898;6.992;2023-02-28T02:56:42;15.57;;;8.70;;
61200;SDS011;47065;52.898;6.992;2023-02-28T02:59:12;18.23;;;9.68;;
61200;SDS011;47065;52.898;6.992;2023-02-28T03:01:46;20.35;;;9.25;;
61200;SDS011;47065;52.898;6.992;2023-02-28T03:04:19;11.55;;;7.38;;
61200;SDS011;47065;52.898;6.992;2023-02-28T03:06:46;11.27;;;7.18;;
61200;SDS011;47065;52.898;6.992;2023-02-28T03:09:12;12.40;;;6.95;;
61200;SDS011;47065;52.898;6.992;2023-02-28T03:11:40;10.88;;;7.68;;
61200;SDS011;47065;52.898;6.992;2023-02-28T03:14:20;12.23;;;6.65;;
61200;SDS011;47065;52.898;6.992;2023-02-28T03:20:15;9.95;;;6.88;;
61200;SDS011;47065;52.898;6.992;2023-02-28T03:28:15;13.48;;;7.40;;
61200;SDS011;47065;52.898;6.992;2023-02-28T03:31:07;15.43;;;8.73;;
61200;SDS011;47065;52.898;6.992;2023-02-28T03:33:49;15.30;;;7.75;;
61200;SDS011;47065;52.898;6.992;2023-02-28T03:36:27;14.45;;;7.07;;
61200;SDS011;47065;52.898;6.992;2023-02-28T03:41:31;11.00;;;7.55;;
61200;SDS011;47065;52.898;6.992;2023-02-28T03:44:03;16.13;;;8.15;;
61200;SDS011;47065;52.898;6.992;2023-02-28T03:46:36;12.43;;;7.85;;
61200;SDS011;47065;52.898;6.992;2023-02-28T03:49:08;14.55;;;8.35;;
61200;SDS011;47065;52.898;6.992;2023-02-28T03:51:41;13.10;;;7.25;;
61200;SDS011;47065;52.898;6.992;2023-02-28T03:54:09;13.38;;;7.63;;
61200;SDS011;47065;52.898;6.992;2023-02-28T03:56:54;12.75;;;8.27;;
61200;SDS011;47065;52.898;6.992;2023-02-28T03:59:28;17.52;;;8.40;;
61200;SDS011;47065;52.898;6.992;2023-02-28T04:01:59;16.05;;;8.85;;
61200;SDS011;47065;52.898;6.992;2023-02-28T04:04:25;16.83;;;10.35;;
61200;SDS011;47065;52.898;6.992;2023-02-28T04:06:51;21.17;;;10.07;;
61200;SDS011;47065;52.898;6.992;2023-02-28T04:09:17;19.58;;;9.60;;
61200;SDS011;47065;52.898;6.992;2023-02-28T04:11:50;16.55;;;9.60;;
61200;SDS011;47065;52.898;6.992;2023-02-28T04:14:17;15.07;;;9.23;;
61200;SDS011;47065;52.898;6.992;2023-02-28T04:16:43;16.00;;;9.35;;
61200;SDS011;47065;52.898;6.992;2023-02-28T04:19:10;14.02;;;9.15;;
61200;SDS011;47065;52.898;6.992;2023-02-28T04:21:41;15.25;;;9.45;;
61200;SDS011;47065;52.898;6.992;2023-02-28T04:26:42;13.77;;;8.20;;
61200;SDS011;47065;52.898;6.992;2023-02-28T04:29:09;16.45;;;8.50;;
61200;SDS011;47065;52.898;6.992;2023-02-28T04:31:36;23.40;;;10.77;;
61200;SDS011;47065;52.898;6.992;2023-02-28T04:34:02;12.85;;;8.68;;
61200;SDS011;47065;52.898;6.992;2023-02-28T04:36:28;16.55;;;8.98;;
61200;SDS011;47065;52.898;6.992;2023-02-28T04:38:54;16.42;;;9.07;;
61200;SDS011;47065;52.898;6.992;2023-02-28T04:41:20;18.23;;;10.07;;
61200;SDS011;47065;52.898;6.992;2023-02-28T04:43:47;16.98;;;9.27;;
61200;SDS011;47065;52.898;6.992;2023-02-28T04:46:13;15.80;;;9.05;;
61200;SDS011;47065;52.898;6.992;2023-02-28T04:48:39;18.00;;;9.95;;
61200;SDS011;47065;52.898;6.992;2023-02-28T04:51:06;12.73;;;8.82;;
61200;SDS011;47065;52.898;6.992;2023-02-28T04:53:33;15.20;;;8.85;;
61200;SDS011;47065;52.898;6.992;2023-02-28T04:55:59;12.15;;;8.80;;
61200;SDS011;47065;52.898;6.992;2023-02-28T04:58:25;13.82;;;9.13;;
61200;SDS011;47065;52.898;6.992;2023-02-28T05:00:52;16.85;;;8.77;;
61200;SDS011;47065;52.898;6.992;2023-02-28T05:03:18;20.58;;;10.32;;
61200;SDS011;47065;52.898;6.992;2023-02-28T05:05:46;16.17;;;10.55;;
61200;SDS011;47065;52.898;6.992;2023-02-28T05:08:12;15.15;;;9.50;;
61200;SDS011;47065;52.898;6.992;2023-02-28T05:10:37;15.90;;;9.48;;
61200;SDS011;47065;52.898;6.992;2023-02-28T05:13:03;16.00;;;10.40;;
61200;SDS011;47065;52.898;6.992;2023-02-28T05:15:29;14.18;;;9.57;;
61200;SDS011;47065;52.898;6.992;2023-02-28T05:17:55;14.95;;;9.77;;
61200;SDS011;47065;52.898;6.992;2023-02-28T05:20:20;15.75;;;10.23;;
61200;SDS011;47065;52.898;6.992;2023-02-28T05:22:46;16.02;;;9.13;;
61200;SDS011;47065;52.898;6.992;2023-02-28T05:25:15;14.98;;;8.52;;
61200;SDS011;47065;52.898;6.992;2023-02-28T05:27:44;13.85;;;8.55;;
61200;SDS011;47065;52.898;6.992;2023-02-28T05:30:10;17.70;;;8.75;;
61200;SDS011;47065;52.898;6.992;2023-02-28T05:32:39;13.25;;;8.25;;
61200;SDS011;47065;52.898;6.992;2023-02-28T05:35:09;15.32;;;8.90;;
61200;SDS011;47065;52.898;6.992;2023-02-28T05:37:36;13.90;;;7.63;;
61200;SDS011;47065;52.898;6.992;2023-02-28T05:40:02;14.63;;;8.63;;
61200;SDS011;47065;52.898;6.992;2023-02-28T05:42:31;22.65;;;10.93;;
61200;SDS011;47065;52.898;6.992;2023-02-28T05:44:57;13.13;;;9.40;;
61200;SDS011;47065;52.898;6.992;2023-02-28T05:47:22;13.35;;;7.82;;
61200;SDS011;47065;52.898;6.992;2023-02-28T05:49:48;13.35;;;8.73;;
61200;SDS011;47065;52.898;6.992;2023-02-28T05:52:14;13.80;;;8.85;;
61200;SDS011;47065;52.898;6.992;2023-02-28T05:54:40;16.65;;;9.73;;
61200;SDS011;47065;52.898;6.992;2023-02-28T05:57:06;19.88;;;9.90;;
61200;SDS011;47065;52.898;6.992;2023-02-28T05:59:32;15.48;;;9.68;;
61200;SDS011;47065;52.898;6.992;2023-02-28T06:01:58;13.45;;;9.57;;
61200;SDS011;47065;52.898;6.992;2023-02-28T06:04:23;15.55;;;9.85;;
61200;SDS011;47065;52.898;6.992;2023-02-28T06:06:50;15.73;;;9.68;;
61200;SDS011;47065;52.898;6.992;2023-02-28T06:09:16;18.85;;;10.27;;
61200;SDS011;47065;52.898;6.992;2023-02-28T06:11:42;18.90;;;10.68;;
61200;SDS011;47065;52.898;6.992;2023-02-28T06:14:12;21.35;;;10.80;;
61200;SDS011;47065;52.898;6.992;2023-02-28T06:16:41;17.90;;;10.77;;
61200;SDS011;47065;52.898;6.992;2023-02-28T06:19:06;16.33;;;10.20;;
61200;SDS011;47065;52.898;6.992;2023-02-28T06:21:32;18.83;;;11.43;;
61200;SDS011;47065;52.898;6.992;2023-02-28T06:23:58;17.33;;;10.80;;
61200;SDS011;47065;52.898;6.992;2023-02-28T06:26:24;15.48;;;10.57;;
61200;SDS011;47065;52.898;6.992;2023-02-28T06:28:50;21.58;;;11.98;;
61200;SDS011;47065;52.898;6.992;2023-02-28T06:31:16;19.10;;;11.43;;
61200;SDS011;47065;52.898;6.992;2023-02-28T06:33:43;19.13;;;10.55;;
61200;SDS011;47065;52.898;6.992;2023-02-28T06:36:10;19.88;;;10.60;;
61200;SDS011;47065;52.898;6.992;2023-02-28T06:38:40;21.27;;;10.60;;
61200;SDS011;47065;52.898;6.992;2023-02-28T06:41:06;21.23;;;11.27;;
61200;SDS011;47065;52.898;6.992;2023-02-28T06:43:37;18.02;;;10.50;;
61200;SDS011;47065;52.898;6.992;2023-02-28T06:46:05;17.00;;;11.27;;
61200;SDS011;47065;52.898;6.992;2023-02-28T06:48:33;21.95;;;10.65;;
61200;SDS011;47065;52.898;6.992;2023-02-28T06:51:04;20.63;;;10.93;;
61200;SDS011;47065;52.898;6.992;2023-02-28T06:53:31;20.48;;;10.98;;
61200;SDS011;47065;52.898;6.992;2023-02-28T06:55:57;23.02;;;11.93;;
61200;SDS011;47065;52.898;6.992;2023-02-28T06:58:23;17.65;;;9.52;;
61200;SDS011;47065;52.898;6.992;2023-02-28T07:00:52;24.85;;;11.90;;
61200;SDS011;47065;52.898;6.992;2023-02-28T07:03:18;21.45;;;11.85;;
61200;SDS011;47065;52.898;6.992;2023-02-28T07:05:44;17.15;;;11.02;;
61200;SDS011;47065;52.898;6.992;2023-02-28T07:08:10;23.10;;;12.23;;
61200;SDS011;47065;52.898;6.992;2023-02-28T07:10:36;19.35;;;12.20;;
61200;SDS011;47065;52.898;6.992;2023-02-28T07:13:03;16.42;;;11.32;;
61200;SDS011;47065;52.898;6.992;2023-02-28T07:15:30;18.80;;;10.77;;
61200;SDS011;47065;52.898;6.992;2023-02-28T07:17:56;17.63;;;11.63;;
61200;SDS011;47065;52.898;6.992;2023-02-28T07:20:22;24.38;;;14.00;;
61200;SDS011;47065;52.898;6.992;2023-02-28T07:22:48;22.88;;;13.82;;
61200;SDS011;47065;52.898;6.992;2023-02-28T07:25:20;25.65;;;13.80;;
61200;SDS011;47065;52.898;6.992;2023-02-28T07:27:50;23.80;;;12.65;;
61200;SDS011;47065;52.898;6.992;2023-02-28T07:30:15;15.63;;;10.98;;
61200;SDS011;47065;52.898;6.992;2023-02-28T07:32:41;16.55;;;11.52;;
61200;SDS011;47065;52.898;6.992;2023-02-28T07:35:07;16.27;;;10.85;;
61200;SDS011;47065;52.898;6.992;2023-02-28T07:37:33;21.80;;;10.30;;
61200;SDS011;47065;52.898;6.992;2023-02-28T07:40:04;20.42;;;11.38;;
61200;SDS011;47065;52.898;6.992;2023-02-28T07:42:33;14.65;;;10.43;;
61200;SDS011;47065;52.898;6.992;2023-02-28T07:45:03;14.40;;;10.40;;
61200;SDS011;47065;52.898;6.992;2023-02-28T07:47:30;16.48;;;10.60;;
61200;SDS011;47065;52.898;6.992;2023-02-28T07:49:56;13.98;;;10.23;;
61200;SDS011;47065;52.898;6.992;2023-02-28T07:52:23;16.25;;;9.98;;
61200;SDS011;47065;52.898;6.992;2023-02-28T07:54:49;17.23;;;11.38;;
61200;SDS011;47065;52.898;6.992;2023-02-28T07:57:15;19.38;;;11.55;;
61200;SDS011;47065;52.898;6.992;2023-02-28T07:59:41;18.42;;;11.20;;
61200;SDS011;47065;52.898;6.992;2023-02-28T08:02:10;16.23;;;10.20;;
61200;SDS011;47065;52.898;6.992;2023-02-28T08:04:39;18.98;;;12.77;;
61200;SDS011;47065;52.898;6.992;2023-02-28T08:07:05;18.30;;;12.68;;
61200;SDS011;47065;52.898;6.992;2023-02-28T08:09:30;16.85;;;11.25;;
61200;SDS011;47065;52.898;6.992;2023-02-28T08:11:56;15.65;;;11.27;;
61200;SDS011;47065;52.898;6.992;2023-02-28T08:14:22;18.08;;;10.38;;
61200;SDS011;47065;52.898;6.992;2023-02-28T08:16:48;15.57;;;11.23;;
61200;SDS011;47065;52.898;6.992;2023-02-28T08:19:13;18.40;;;12.43;;
61200;SDS011;47065;52.898;6.992;2023-02-28T08:21:39;18.20;;;11.20;;
61200;SDS011;47065;52.898;6.992;2023-02-28T08:24:05;19.13;;;12.60;;
61200;SDS011;47065;52.898;6.992;2023-02-28T08:26:32;20.25;;;12.20;;
61200;SDS011;47065;52.898;6.992;2023-02-28T08:28:58;19.27;;;12.20;;
61200;SDS011;47065;52.898;6.992;2023-02-28T08:31:23;16.20;;;11.07;;
61200;SDS011;47065;52.898;6.992;2023-02-28T08:33:49;19.50;;;11.95;;
61200;SDS011;47065;52.898;6.992;2023-02-28T08:36:17;19.15;;;11.77;;
61200;SDS011;47065;52.898;6.992;2023-02-28T08:38:42;18.15;;;10.95;;
61200;SDS011;47065;52.898;6.992;2023-02-28T08:41:10;18.30;;;11.10;;
61200;SDS011;47065;52.898;6.992;2023-02-28T08:43:37;16.42;;;10.25;;
61200;SDS011;47065;52.898;6.992;2023-02-28T08:46:04;14.80;;;9.25;;
61200;SDS011;47065;52.898;6.992;2023-02-28T08:48:31;12.05;;;9.20;;
61200;SDS011;47065;52.898;6.992;2023-02-28T08:51:05;13.77;;;8.55;;
61200;SDS011;47065;52.898;6.992;2023-02-28T08:53:34;12.45;;;8.70;;
61200;SDS011;47065;52.898;6.992;2023-02-28T08:56:01;12.18;;;9.00;;
61200;SDS011;47065;52.898;6.992;2023-02-28T08:58:29;14.43;;;9.23;;
61200;SDS011;47065;52.898;6.992;2023-02-28T09:00:55;10.93;;;8.82;;
61200;SDS011;47065;52.898;6.992;2023-02-28T09:03:21;12.65;;;8.15;;
61200;SDS011;47065;52.898;6.992;2023-02-28T09:05:57;15.45;;;8.00;;
61200;SDS011;47065;52.898;6.992;2023-02-28T09:08:25;9.43;;;6.80;;
61200;SDS011;47065;52.898;6.992;2023-02-28T09:10:52;13.70;;;7.85;;
61200;SDS011;47065;52.898;6.992;2023-02-28T09:13:19;9.93;;;7.50;;
61200;SDS011;47065;52.898;6.992;2023-02-28T09:15:45;8.25;;;7.03;;
61200;SDS011;47065;52.898;6.992;2023-02-28T09:18:11;11.02;;;6.95;;
61200;SDS011;47065;52.898;6.992;2023-02-28T09:20:37;10.77;;;7.65;;
61200;SDS011;47065;52.898;6.992;2023-02-28T09:23:04;13.70;;;6.85;;
61200;SDS011;47065;52.898;6.992;2023-02-28T09:25:31;10.63;;;6.65;;
61200;SDS011;47065;52.898;6.992;2023-02-28T09:27:57;8.23;;;6.43;;
61200;SDS011;47065;52.898;6.992;2023-02-28T09:30:22;6.68;;;5.72;;
61200;SDS011;47065;52.898;6.992;2023-02-28T09:32:48;8.98;;;5.72;;
61200;SDS011;47065;52.898;6.992;2023-02-28T09:35:20;8.80;;;4.97;;
61200;SDS011;47065;52.898;6.992;2023-02-28T09:37:47;9.18;;;5.40;;
61200;SDS011;47065;52.898;6.992;2023-02-28T09:40:14;13.35;;;7.57;;
61200;SDS011;47065;52.898;6.992;2023-02-28T09:42:44;6.07;;;5.55;;
61200;SDS011;47065;52.898;6.992;2023-02-28T09:47:53;5.30;;;3.72;;
61200;SDS011;47065;52.898;6.992;2023-02-28T09:50:33;7.32;;;3.50;;
61200;SDS011;47065;52.898;6.992;2023-02-28T09:53:05;5.57;;;3.38;;
61200;SDS011;47065;52.898;6.992;2023-02-28T09:55:55;4.15;;;2.65;;
61200;SDS011;47065;52.898;6.992;2023-02-28T10:01:25;5.03;;;2.22;;
61200;SDS011;47065;52.898;6.992;2023-02-28T10:06:45;2.88;;;2.30;;
61200;SDS011;47065;52.898;6.992;2023-02-28T10:09:16;2.95;;;2.25;;
61200;SDS011;47065;52.898;6.992;2023-02-28T10:11:47;4.80;;;2.70;;
61200;SDS011;47065;52.898;6.992;2023-02-28T10:16:46;5.35;;;3.00;;
61200;SDS011;47065;52.898;6.992;2023-02-28T10:19:25;6.05;;;3.38;;
61200;SDS011;47065;52.898;6.992;2023-02-28T10:22:00;5.07;;;3.08;;
61200;SDS011;47065;52.898;6.992;2023-02-28T10:24:41;4.63;;;2.60;;
61200;SDS011;47065;52.898;6.992;2023-02-28T10:27:30;3.75;;;2.78;;
61200;SDS011;47065;52.898;6.992;2023-02-28T10:29:56;6.07;;;3.53;;
61200;SDS011;47065;52.898;6.992;2023-02-28T10:32:31;4.82;;;3.35;;
61200;SDS011;47065;52.898;6.992;2023-02-28T10:34:59;3.50;;;2.55;;
61200;SDS011;47065;52.898;6.992;2023-02-28T10:37:31;3.10;;;2.80;;
61200;SDS011;47065;52.898;6.992;2023-02-28T10:40:03;5.10;;;3.13;;
61200;SDS011;47065;52.898;6.992;2023-02-28T10:42:31;3.58;;;3.17;;
61200;SDS011;47065;52.898;6.992;2023-02-28T10:47:36;2.95;;;2.42;;
61200;SDS011;47065;52.898;6.992;2023-02-28T11:01:35;4.70;;;2.75;;
61200;SDS011;47065;52.898;6.992;2023-02-28T11:04:19;3.42;;;2.50;;
61200;SDS011;47065;52.898;6.992;2023-02-28T11:06:46;2.95;;;2.22;;
61200;SDS011;47065;52.898;6.992;2023-02-28T11:09:27;4.57;;;2.20;;
61200;SDS011;47065;52.898;6.992;2023-02-28T11:11:57;3.13;;;2.70;;
61200;SDS011;47065;52.898;6.992;2023-02-28T11:14:26;4.25;;;2.85;;
61200;SDS011;47065;52.898;6.992;2023-02-28T11:16:54;3.30;;;2.05;;
61200;SDS011;47065;52.898;6.992;2023-02-28T11:19:31;4.15;;;2.35;;
61200;SDS011;47065;52.898;6.992;2023-02-28T11:22:05;4.68;;;2.50;;
61200;SDS011;47065;52.898;6.992;2023-02-28T11:24:33;3.83;;;1.90;;
61200;SDS011;47065;52.898;6.992;2023-02-28T11:27:06;3.55;;;2.38;;
61200;SDS011;47065;52.898;6.992;2023-02-28T11:29:39;2.90;;;1.50;;
61200;SDS011;47065;52.898;6.992;2023-02-28T11:32:19;3.38;;;1.90;;
61200;SDS011;47065;52.898;6.992;2023-02-28T11:34:47;2.92;;;1.50;;
61200;SDS011;47065;52.898;6.992;2023-02-28T11:37:47;1.83;;;1.70;;
61200;SDS011;47065;52.898;6.992;2023-02-28T11:40:16;5.00;;;2.08;;
61200;SDS011;47065;52.898;6.992;2023-02-28T11:51:32;2.97;;;1.48;;
61200;SDS011;47065;52.898;6.992;2023-02-28T12:05:42;3.50;;;2.35;;
61200;SDS011;47065;52.898;6.992;2023-02-28T12:11:01;3.95;;;2.17;;
61200;SDS011;47065;52.898;6.992;2023-02-28T12:13:43;3.40;;;2.05;;
61200;SDS011;47065;52.898;6.992;2023-02-28T12:16:39;3.30;;;1.90;;
61200;SDS011;47065;52.898;6.992;2023-02-28T12:28:06;3.65;;;2.08;;
61200;SDS011;47065;52.898;6.992;2023-02-28T12:30:36;4.10;;;2.50;;
61200;SDS011;47065;52.898;6.992;2023-02-28T12:33:12;3.33;;;2.15;;
61200;SDS011;47065;52.898;6.992;2023-02-28T12:35:45;2.28;;;1.75;;
61200;SDS011;47065;52.898;6.992;2023-02-28T12:41:18;1.75;;;1.60;;
61200;SDS011;47065;52.898;6.992;2023-02-28T12:44:02;2.75;;;1.70;;
61200;SDS011;47065;52.898;6.992;2023-02-28T12:46:33;3.95;;;2.13;;
61200;SDS011;47065;52.898;6.992;2023-02-28T12:49:16;3.20;;;2.10;;
61200;SDS011;47065;52.898;6.992;2023-02-28T12:51:46;3.13;;;1.48;;
61200;SDS011;47065;52.898;6.992;2023-02-28T12:54:15;1.55;;;1.45;;
61200;SDS011;47065;52.898;6.992;2023-02-28T12:56:47;1.67;;;1.45;;
61200;SDS011;47065;52.898;6.992;2023-02-28T12:59:23;1.80;;;1.35;;
61200;SDS011;47065;52.898;6.992;2023-02-28T13:09:55;1.77;;;1.45;;
61200;SDS011;47065;52.898;6.992;2023-02-28T13:12:23;2.75;;;1.58;;
61200;SDS011;47065;52.898;6.992;2023-02-28T13:14:49;4.03;;;1.45;;
61200;SDS011;47065;52.898;6.992;2023-02-28T13:17:23;2.72;;;1.48;;
61200;SDS011;47065;52.898;6.992;2023-02-28T13:22:20;3.38;;;1.77;;
61200;SDS011;47065;52.898;6.992;2023-02-28T13:25:03;3.42;;;1.98;;
61200;SDS011;47065;52.898;6.992;2023-02-28T13:27:48;5.18;;;1.60;;
61200;SDS011;47065;52.898;6.992;2023-02-28T13:33:22;4.10;;;1.95;;
61200;SDS011;47065;52.898;6.992;2023-02-28T13:36:08;2.72;;;1.33;;
61200;SDS011;47065;52.898;6.992;2023-02-28T13:38:50;2.22;;;2.00;;
61200;SDS011;47065;52.898;6.992;2023-02-28T14:05:17;1.98;;;1.73;;
61200;SDS011;47065;52.898;6.992;2023-02-28T14:07:52;4.07;;;1.65;;
61200;SDS011;47065;52.898;6.992;2023-02-28T14:10:22;4.85;;;1.90;;
61200;SDS011;47065;52.898;6.992;2023-02-28T14:12:56;3.10;;;1.77;;
61200;SDS011;47065;52.898;6.992;2023-02-28T14:15:28;2.08;;;1.45;;
61200;SDS011;47065;52.898;6.992;2023-02-28T14:18:03;3.40;;;1.70;;
61200;SDS011;47065;52.898;6.992;2023-02-28T14:20:46;3.58;;;1.95;;
61200;SDS011;47065;52.898;6.992;2023-02-28T14:31:40;1.83;;;1.40;;
61200;SDS011;47065;52.898;6.992;2023-02-28T14:34:35;1.60;;;1.45;;
61200;SDS011;47065;52.898;6.992;2023-02-28T14:37:03;3.33;;;1.75;;
61200;SDS011;47065;52.898;6.992;2023-02-28T14:39:29;2.72;;;1.77;;
61200;SDS011;47065;52.898;6.992;2023-02-28T14:41:56;3.05;;;1.67;;
61200;SDS011;47065;52.898;6.992;2023-02-28T14:44:28;3.90;;;1.80;;
61200;SDS011;47065;52.898;6.992;2023-02-28T14:46:54;3.58;;;2.25;;
61200;SDS011;47065;52.898;6.992;2023-02-28T14:49:26;2.13;;;1.65;;
61200;SDS011;47065;52.898;6.992;2023-02-28T14:52:05;3.22;;;1.63;;
61200;SDS011;47065;52.898;6.992;2023-02-28T14:54:34;2.67;;;1.73;;
61200;SDS011;47065;52.898;6.992;2023-02-28T14:57:01;3.78;;;2.25;;
61200;SDS011;47065;52.898;6.992;2023-02-28T14:59:28;3.00;;;1.73;;
61200;SDS011;47065;52.898;6.992;2023-02-28T15:04:41;5.07;;;1.77;;
61200;SDS011;47065;52.898;6.992;2023-02-28T15:07:10;2.97;;;1.75;;
61200;SDS011;47065;52.898;6.992;2023-02-28T15:09:38;1.70;;;1.55;;
61200;SDS011;47065;52.898;6.992;2023-02-28T15:12:04;4.10;;;1.85;;
61200;SDS011;47065;52.898;6.992;2023-02-28T15:14:30;2.70;;;1.67;;
61200;SDS011;47065;52.898;6.992;2023-02-28T15:16:57;4.60;;;1.83;;
61200;SDS011;47065;52.898;6.992;2023-02-28T15:19:32;5.78;;;1.50;;
61200;SDS011;47065;52.898;6.992;2023-02-28T15:22:02;2.63;;;1.58;;
61200;SDS011;47065;52.898;6.992;2023-02-28T15:24:41;2.05;;;1.38;;
61200;SDS011;47065;52.898;6.992;2023-02-28T15:27:20;1.77;;;1.30;;
61200;SDS011;47065;52.898;6.992;2023-02-28T15:29:49;2.88;;;1.33;;
61200;SDS011;47065;52.898;6.992;2023-02-28T15:34:58;4.03;;;1.60;;
61200;SDS011;47065;52.898;6.992;2023-02-28T15:37:55;3.33;;;1.53;;
61200;SDS011;47065;52.898;6.992;2023-02-28T15:40:35;3.30;;;1.30;;
61200;SDS011;47065;52.898;6.992;2023-02-28T15:43:45;1.20;;;1.10;;
61200;SDS011;47065;52.898;6.992;2023-02-28T15:45:57;1.63;;;1.27;;
61200;SDS011;47065;52.898;6.992;2023-02-28T15:51:08;4.05;;;1.48;;
61200;SDS011;47065;52.898;6.992;2023-02-28T15:53:58;2.65;;;1.63;;
61200;SDS011;47065;52.898;6.992;2023-02-28T15:56:31;2.00;;;1.52;;
61200;SDS011;47065;52.898;6.992;2023-02-28T15:59:05;4.30;;;2.17;;
61200;SDS011;47065;52.898;6.992;2023-02-28T16:01:33;4.68;;;1.75;;
61200;SDS011;47065;52.898;6.992;2023-02-28T16:04:01;3.13;;;1.85;;
61200;SDS011;47065;52.898;6.992;2023-02-28T16:06:35;5.95;;;2.22;;
61200;SDS011;47065;52.898;6.992;2023-02-28T16:09:01;2.95;;;1.80;;
61200;SDS011;47065;52.898;6.992;2023-02-28T16:11:28;2.45;;;1.98;;
61200;SDS011;47065;52.898;6.992;2023-02-28T16:13:54;2.35;;;1.45;;
61200;SDS011;47065;52.898;6.992;2023-02-28T16:16:20;3.85;;;1.63;;
61200;SDS011;47065;52.898;6.992;2023-02-28T16:18:49;2.58;;;1.65;;
61200;SDS011;47065;52.898;6.992;2023-02-28T16:21:15;2.22;;;2.03;;
61200;SDS011;47065;52.898;6.992;2023-02-28T16:23:41;2.08;;;1.60;;
61200;SDS011;47065;52.898;6.992;2023-02-28T16:26:07;3.42;;;1.83;;
61200;SDS011;47065;52.898;6.992;2023-02-28T16:28:40;2.80;;;1.45;;
61200;SDS011;47065;52.898;6.992;2023-02-28T16:31:06;1.88;;;1.55;;
61200;SDS011;47065;52.898;6.992;2023-02-28T16:33:33;3.30;;;1.58;;
61200;SDS011;47065;52.898;6.992;2023-02-28T16:35:59;1.40;;;1.17;;
61200;SDS011;47065;52.898;6.992;2023-02-28T16:38:25;1.60;;;1.50;;
61200;SDS011;47065;52.898;6.992;2023-02-28T16:40:51;1.92;;;1.40;;
61200;SDS011;47065;52.898;6.992;2023-02-28T16:43:22;2.17;;;1.60;;
61200;SDS011;47065;52.898;6.992;2023-02-28T16:45:54;3.92;;;1.58;;
61200;SDS011;47065;52.898;6.992;2023-02-28T16:48:21;3.90;;;2.00;;
61200;SDS011;47065;52.898;6.992;2023-02-28T16:50:47;2.58;;;1.65;;
61200;SDS011;47065;52.898;6.992;2023-02-28T16:53:13;3.00;;;2.10;;
61200;SDS011;47065;52.898;6.992;2023-02-28T16:55:38;3.78;;;2.47;;
61200;SDS011;47065;52.898;6.992;2023-02-28T16:58:04;4.97;;;2.75;;
61200;SDS011;47065;52.898;6.992;2023-02-28T17:00:30;8.30;;;6.55;;
61200;SDS011;47065;52.898;6.992;2023-02-28T17:02:57;7.45;;;6.45;;
61200;SDS011;47065;52.898;6.992;2023-02-28T17:05:24;5.15;;;3.65;;
61200;SDS011;47065;52.898;6.992;2023-02-28T17:07:52;5.88;;;3.85;;
61200;SDS011;47065;52.898;6.992;2023-02-28T17:10:21;4.63;;;4.03;;
61200;SDS011;47065;52.898;6.992;2023-02-28T17:12:50;3.15;;;2.83;;
61200;SDS011;47065;52.898;6.992;2023-02-28T17:15:17;2.55;;;2.33;;
61200;SDS011;47065;52.898;6.992;2023-02-28T17:17:44;4.22;;;2.15;;